Trenton, New Jersey
Current Conditions -  °F | °C
As of 1:53 PM on Monday 20 Oct 2014 (Local Time) from KTTN Reporting Station
Clear Clear  
Wind Chill: 60°   Ceiling: Unl
Heat Index: 60°   Visibility: 10mi
Dew Point: 37°   Wind: 10mph
Humidity: 42%   Direction: 220°SW
Pressure: 30.03"   Gusts: NA
Location:  40.22°N, 74.76°W
Report Text: KTTN 201753Z 22009KT 10SM CLR 16/03 A3003 RMK AO2 SLP163 T01560028 10156 20011 58028
Loading
Personal Weather Stations






























Interactive Weather Map New forecast layout! Learn more

10-Day Weather Forecast

Advertisements
Track Severe Weather on mobile